Weather reports worldwide

Advertisment
Cassley, United Kingdom (99003): temperature & dewpoint: 15.08.2017 11:00:00 - 21.08.2017 11:00:00 (BST)Cassley, United Kingdom (99003): visibility: 15.08.2017 11:00:00 - 21.08.2017 11:00:00 (BST)Cassley, United Kingdom (99003): precipitation: 15.08.2017 11:00:00 - 21.08.2017 11:00:00 (BST)
Date & Time tt [°C] td [°C] vv [km] rr [mm]
21.08.2017 11:00:00 - - - 0,0
21.08.2017 10:00:00 11,9 9,5 - 0,0
21.08.2017 09:00:00 11,0 9,5 - 0,0
21.08.2017 08:00:00 9,8 9,5 - 0,0
21.08.2017 07:00:00 9,1 8,8 - 0,0
21.08.2017 06:00:00 8,2 7,9 - 0,0
21.08.2017 05:00:00 7,6 7,1 - 0,0
21.08.2017 04:00:00 9,3 8,7 - 0,0
21.08.2017 03:00:00 8,5 7,4 - 0,0
21.08.2017 02:00:00 10,1 9,1 - 0,0
21.08.2017 01:00:00 10,2 9,0 - 0,0
21.08.2017 00:00:00 9,6 8,5 - 0,0
20.08.2017 23:00:00 8,9 7,4 - 0,0
20.08.2017 22:00:00 10,6 8,1 - 0,0
20.08.2017 21:00:00 10,7 8,0 - 0,0
20.08.2017 20:00:00 13,5 8,5 - 0,0
20.08.2017 19:00:00 13,8 8,5 - 0,0
20.08.2017 18:00:00 14,6 9,1 - 0,0
20.08.2017 17:00:00 15,4 8,4 - 0,0
20.08.2017 16:00:00 15,2 7,7 - 0,0
20.08.2017 15:00:00 15,0 8,0 - 0,0
20.08.2017 14:00:00 14,8 9,3 - 0,0
20.08.2017 13:00:00 14,4 9,7 - 0,0
20.08.2017 12:00:00 13,0 9,8 - 0,0
20.08.2017 11:00:00 14,5 10,1 - 0,0
20.08.2017 10:00:00 13,8 10,4 - 0,0
20.08.2017 09:00:00 12,2 10,5 - 0,0
20.08.2017 08:00:00 11,8 10,4 - 0,0
20.08.2017 07:00:00 11,1 10,0 - 0,0
20.08.2017 06:00:00 10,9 10,1 - 0,0
20.08.2017 05:00:00 11,2 10,2 - 0,6
20.08.2017 04:00:00 11,7 10,4 - 0,2
20.08.2017 03:00:00 11,7 10,5 - 0,2
20.08.2017 02:00:00 11,9 10,9 - 1,6
20.08.2017 01:00:00 12,1 10,8 - 0,6
20.08.2017 00:00:00 12,1 11,4 - 1,6
19.08.2017 23:00:00 12,0 11,0 - 1,0
19.08.2017 22:00:00 12,1 11,1 - 1,4
19.08.2017 21:00:00 12,3 11,5 - 1,0
19.08.2017 20:00:00 12,5 11,3 - 2,0
19.08.2017 19:00:00 12,9 11,4 - 0,2
19.08.2017 18:00:00 13,5 11,9 - 0,2
19.08.2017 17:00:00 13,4 12,0 - 0,8
19.08.2017 16:00:00 14,8 11,3 - 0,0
19.08.2017 15:00:00 15,2 11,1 - 0,0
19.08.2017 14:00:00 16,4 11,5 - 0,0
19.08.2017 13:00:00 13,8 11,2 - 0,0
19.08.2017 12:00:00 15,0 11,2 - 0,0
19.08.2017 11:00:00 14,9 11,1 - 0,0
19.08.2017 10:00:00 13,9 12,5 - 0,0
19.08.2017 09:00:00 12,7 11,2 - 0,8
19.08.2017 08:00:00 12,4 10,9 - 0,0
19.08.2017 07:00:00 12,1 10,8 - 1,4
19.08.2017 06:00:00 11,9 10,6 - 0,4
19.08.2017 05:00:00 11,7 10,6 - 1,2
19.08.2017 04:00:00 11,7 10,4 - 0,8
19.08.2017 03:00:00 11,5 10,6 - 3,0
19.08.2017 02:00:00 11,6 10,5 - 1,2
19.08.2017 01:00:00 11,8 10,7 - 0,8
19.08.2017 00:00:00 12,0 11,1 - 0,2
18.08.2017 23:00:00 11,9 10,5 - 0,0
18.08.2017 22:00:00 11,9 10,4 - 0,0
18.08.2017 21:00:00 12,6 10,9 - 0,0
18.08.2017 20:00:00 13,2 10,9 - 0,0
18.08.2017 19:00:00 14,2 10,5 - 0,0
18.08.2017 18:00:00 13,5 10,0 - 0,0
18.08.2017 17:00:00 13,0 11,0 - 0,2
18.08.2017 16:00:00 12,5 10,5 - 0,2
18.08.2017 15:00:00 13,3 10,0 - 0,0
18.08.2017 14:00:00 13,2 9,3 - 0,0
18.08.2017 13:00:00 13,3 10,1 - 0,0
18.08.2017 12:00:00 12,5 9,9 - 0,0
18.08.2017 11:00:00 12,1 10,3 - 0,0
18.08.2017 10:00:00 12,3 11,5 - 0,0
18.08.2017 09:00:00 11,6 11,0 - 0,4
18.08.2017 08:00:00 11,1 10,6 - 0,2
18.08.2017 07:00:00 10,5 10,2 - 0,0
18.08.2017 06:00:00 10,1 9,4 - 0,0
18.08.2017 05:00:00 10,9 10,2 - 0,4
18.08.2017 04:00:00 10,4 9,7 - 0,0
18.08.2017 03:00:00 10,7 9,8 - 0,0
18.08.2017 02:00:00 11,1 10,0 - 0,0
18.08.2017 01:00:00 11,6 10,6 - 0,0
18.08.2017 00:00:00 12,2 10,1 - 0,0
17.08.2017 23:00:00 11,7 9,9 - 0,0
17.08.2017 22:00:00 12,1 9,8 - 0,0
17.08.2017 21:00:00 12,9 9,5 - 0,0
17.08.2017 20:00:00 15,2 10,6 - 0,0
17.08.2017 19:00:00 15,8 10,2 - 0,0
17.08.2017 18:00:00 17,4 10,5 - 0,0
17.08.2017 17:00:00 18,1 11,0 - 0,0
17.08.2017 16:00:00 16,8 10,9 - 0,0
17.08.2017 15:00:00 17,6 11,4 - 0,0
17.08.2017 14:00:00 18,7 11,9 - 0,2
17.08.2017 13:00:00 15,8 11,6 - 0,0
17.08.2017 12:00:00 16,3 12,0 - 0,0
17.08.2017 11:00:00 18,4 11,3 - 0,0
17.08.2017 10:00:00 17,1 11,0 10 0,0
17.08.2017 09:00:00 15,2 10,2 - 0,0
17.08.2017 08:00:00 13,6 9,8 - 0,0
17.08.2017 07:00:00 12,2 10,4 - 0,0
17.08.2017 06:00:00 11,6 9,7 - 0,0
17.08.2017 05:00:00 12,1 9,6 - 0,0
17.08.2017 04:00:00 11,1 9,5 - 0,0
17.08.2017 03:00:00 11,3 9,5 - 0,0
17.08.2017 02:00:00 11,3 9,4 - 0,0
17.08.2017 01:00:00 13,6 11,8 - 0,0
17.08.2017 00:00:00 14,0 13,0 - 0,0
16.08.2017 23:00:00 14,3 13,4 - 0,4
16.08.2017 22:00:00 14,1 13,2 - 2,0
16.08.2017 21:00:00 14,8 13,0 - 0,2
16.08.2017 20:00:00 15,3 12,6 - 0,2
16.08.2017 19:00:00 15,7 13,0 - 0,2
16.08.2017 18:00:00 17,5 11,5 - 0,0
16.08.2017 17:00:00 17,9 11,8 - 0,0
16.08.2017 16:00:00 17,0 11,0 - 0,0
16.08.2017 15:00:00 16,4 11,0 - 0,2
16.08.2017 14:00:00 14,4 11,2 - 0,0
16.08.2017 13:00:00 15,7 11,1 - 0,0
16.08.2017 12:00:00 14,3 11,5 - 0,2
16.08.2017 11:00:00 13,5 10,0 - 0,0
16.08.2017 10:00:00 14,5 9,4 0,05 0,0
16.08.2017 09:00:00 12,1 10,0 - 0,0
16.08.2017 08:00:00 10,8 9,6 - 0,0
16.08.2017 07:00:00 10,1 8,7 - 0,0
16.08.2017 06:00:00 10,2 8,6 - 0,0
16.08.2017 05:00:00 12,6 7,7 - 0,0
16.08.2017 04:00:00 12,6 7,7 - 0,0
16.08.2017 03:00:00 12,1 8,2 - 0,2
16.08.2017 02:00:00 12,6 8,5 - 0,0
16.08.2017 01:00:00 12,2 9,2 - 0,0
16.08.2017 00:00:00 12,7 8,4 - 0,0
15.08.2017 23:00:00 12,8 9,2 - 0,0
15.08.2017 22:00:00 13,3 9,2 - 0,2
15.08.2017 21:00:00 12,4 9,8 - 1,0
15.08.2017 20:00:00 14,0 8,7 - 0,0
15.08.2017 19:00:00 13,9 8,2 - 0,0
15.08.2017 18:00:00 14,6 9,4 - 0,0
15.08.2017 17:00:00 14,8 10,2 - 0,0
15.08.2017 16:00:00 17,3 9,0 - 0,0
15.08.2017 15:00:00 16,8 10,0 - 0,0
15.08.2017 14:00:00 13,9 11,4 - 0,6
15.08.2017 13:00:00 13,5 10,2 - 0,2
15.08.2017 12:00:00 15,9 9,5 - 0,0
15.08.2017 11:00:00 15,7 9,5 - 0,0

tt = temperature
td = dewpoint
vv = visibility
rr = precipitation

Next stations